Time;durP1;ratioP1;P1;durP2;ratioP2;P2;SDS_P1;SDS_P2;PMS_P1;PMS_P2;Temp;Humidity;BMP_temperature;BMP_pressure;BME280_temperature;BME280_humidity;BME280_pressure;Samples;Min_cycle;Max_cycle;Signal;HPM_P1;HPM_P2
2022/08/20 00:00:23;;;;;;;9.73;7.85;;;21.50;91.10;;;;;;4982790;28;20038;-85
2022/08/20 00:02:56;;;;;;;18.17;12.02;;;21.50;92.40;;;;;;4980283;28;20034;-84
2022/08/20 00:05:27;;;;;;;14.95;10.40;;;21.50;93.50;;;;;;4988159;28;20033;-83
2022/08/20 00:07:53;;;;;;;16.92;11.15;;;21.30;93.30;;;;;;4990216;28;20045;-83
2022/08/20 00:10:18;;;;;;;19.20;14.32;;;21.10;94.70;;;;;;4988556;28;20033;-83
2022/08/20 00:12:45;;;;;;;25.48;14.50;;;21.10;94.50;;;;;;4998900;28;20037;-82
2022/08/20 00:15:11;;;;;;;15.05;13.40;;;21.00;95.10;;;;;;4986347;28;20425;-82
2022/08/20 00:17:37;;;;;;;13.77;12.02;;;21.00;96.30;;;;;;4985613;28;20038;-82
2022/08/20 00:20:08;;;;;;;10.85;9.68;;;20.90;97.60;;;;;;4984789;28;20104;-82
2022/08/20 00:22:34;;;;;;;17.73;14.30;;;21.00;96.80;;;;;;4989387;28;20089;-82
2022/08/20 00:24:59;;;;;;;17.17;12.85;;;20.90;95.90;;;;;;4987505;28;20026;-83
2022/08/20 00:27:25;;;;;;;18.80;13.65;;;20.80;95.60;;;;;;5006657;28;20025;-82
2022/08/20 00:29:50;;;;;;;19.65;15.18;;;20.80;97.90;;;;;;5003471;28;20046;-82
2022/08/20 00:32:16;;;;;;;14.65;10.20;;;20.80;98.50;;;;;;5009484;28;20030;-81
2022/08/20 00:34:42;;;;;;;15.45;10.00;;;20.90;96.30;;;;;;4990757;28;20120;-82
2022/08/20 00:37:07;;;;;;;9.35;6.78;;;20.90;96.20;;;;;;4992957;28;20033;-82
2022/08/20 00:39:33;;;;;;;18.08;14.48;;;20.80;96.00;;;;;;5002115;28;20040;-82
2022/08/20 00:41:59;;;;;;;19.35;15.50;;;20.70;97.80;;;;;;4993097;28;20040;-82
2022/08/20 00:44:25;;;;;;;15.65;11.13;;;20.60;96.10;;;;;;5005034;28;20132;-83
2022/08/20 00:46:51;;;;;;;12.75;9.85;;;20.70;96.10;;;;;;5008196;28;20046;-83
2022/08/20 00:49:20;;;;;;;14.07;10.20;;;20.70;97.30;;;;;;4992335;28;20037;-83
2022/08/20 00:51:58;;;;;;;18.25;14.30;;;20.70;98.10;;;;;;5008433;28;20033;-83
2022/08/20 00:54:27;;;;;;;16.17;11.07;;;20.60;96.30;;;;;;5006353;28;20507;-83
2022/08/20 00:57:08;;;;;;;16.67;12.80;;;20.60;96.80;;;;;;4988066;28;20061;-83
2022/08/20 00:59:35;;;;;;;10.18;8.48;;;20.60;98.10;;;;;;4991226;28;20025;-84
2022/08/20 01:02:01;;;;;;;20.08;14.35;;;20.60;97.60;;;;;;4989850;28;20049;-83
2022/08/20 01:04:28;;;;;;;19.15;14.25;;;20.60;99.20;;;;;;5004383;28;20064;-84
2022/08/20 01:06:54;;;;;;;17.50;14.48;;;20.50;96.90;;;;;;5003119;28;20853;-83
2022/08/20 01:09:20;;;;;;;20.73;15.75;;;20.40;98.00;;;;;;4992443;28;20033;-83
2022/08/20 01:11:46;;;;;;;24.77;17.98;;;20.40;97.50;;;;;;5004192;28;20026;-83
2022/08/20 01:17:02;;;;;;;23.50;17.65;;;20.40;97.10;;;;;;5003909;28;20083;-83
2022/08/20 01:19:37;;;;;;;11.48;9.35;;;20.40;97.30;;;;;;4988127;28;20045;-83
2022/08/20 01:23:25;;;;;;;9.73;7.43;;;20.50;96.90;;;;;;4995273;28;20385;-83
2022/08/20 01:24:49;;;;;;;10.98;9.50;;;20.50;95.90;;;;;;5009766;28;20030;-82
2022/08/20 01:27:14;;;;;;;7.70;6.80;;;20.30;96.50;;;;;;5010204;28;20041;-83
2022/08/20 01:29:40;;;;;;;22.13;16.42;;;20.40;95.80;;;;;;5023122;28;20404;-82
2022/08/20 01:32:06;;;;;;;22.83;16.85;;;20.30;97.00;;;;;;5004687;28;20033;-82
2022/08/20 01:34:32;;;;;;;21.58;16.77;;;20.30;96.80;;;;;;4992825;28;20037;-83
2022/08/20 01:36:58;;;;;;;10.73;9.63;;;20.20;96.50;;;;;;5006212;28;20493;-82
2022/08/20 01:39:29;;;;;;;24.27;17.70;;;20.20;96.40;;;;;;4992291;28;20032;-83
2022/08/20 01:42:11;;;;;;;14.43;12.55;;;20.20;96.10;;;;;;4990802;28;20029;-83
2022/08/20 01:44:37;;;;;;;20.38;15.98;;;20.20;95.80;;;;;;5003038;28;20033;-82
2022/08/20 01:47:22;;;;;;;24.92;18.15;;;20.20;96.40;;;;;;4991380;28;20022;-82
2022/08/20 01:49:51;;;;;;;20.70;14.68;;;20.20;97.10;;;;;;5005403;28;20157;-82
2022/08/20 01:52:47;;;;;;;14.80;12.30;;;20.10;97.20;;;;;;4983832;28;20033;-82
2022/08/20 01:55:13;;;;;;;15.73;13.38;;;20.10;98.40;;;;;;4986263;28;20033;-82
2022/08/20 01:57:39;;;;;;;25.83;19.27;;;20.00;97.30;;;;;;4991045;28;20644;-82
2022/08/20 02:00:08;;;;;;;16.70;13.23;;;20.00;99.90;;;;;;5006519;28;20037;-82
2022/08/20 02:02:34;;;;;;;25.75;19.02;;;19.90;97.40;;;;;;4989442;28;20083;-82
2022/08/20 02:04:59;;;;;;;11.25;9.20;;;19.90;97.90;;;;;;5006379;28;20032;-82
2022/08/20 02:07:25;;;;;;;23.83;19.13;;;19.90;97.60;;;;;;4990609;28;20117;-82
2022/08/20 02:09:51;;;;;;;26.52;19.60;;;19.90;99.90;;;;;;4998604;28;20397;-82
2022/08/20 02:12:16;;;;;;;23.05;16.98;;;19.90;99.90;;;;;;5008777;28;20056;-82
2022/08/20 02:14:45;;;;;;;11.00;8.55;;;19.90;99.90;;;;;;4983418;28;20489;-83
2022/08/20 02:17:12;;;;;;;18.75;11.73;;;19.80;98.10;;;;;;4989327;28;20045;-83
2022/08/20 02:19:39;;;;;;;10.23;7.85;;;19.90;99.10;;;;;;4999616;28;20030;-83
2022/08/20 02:22:28;;;;;;;16.35;13.00;;;20.00;97.70;;;;;;5007624;28;20104;-83
2022/08/20 02:24:54;;;;;;;11.15;7.30;;;19.90;98.20;;;;;;4990293;28;20120;-83
2022/08/20 02:27:22;;;;;;;16.75;14.43;;;19.90;97.70;;;;;;4989517;28;20128;-80
2022/08/20 02:29:47;;;;;;;22.27;17.38;;;19.80;99.50;;;;;;4986928;28;20408;-78
2022/08/20 02:32:13;;;;;;;8.55;7.63;;;19.80;98.10;;;;;;4990924;28;20029;-79
2022/08/20 02:34:39;;;;;;;12.10;9.65;;;19.70;97.00;;;;;;4987635;28;20099;-80
2022/08/20 02:37:04;;;;;;;15.10;11.90;;;19.70;98.10;;;;;;5002557;28;20080;-80
2022/08/20 02:39:30;;;;;;;11.65;9.75;;;19.90;98.40;;;;;;4989217;28;20117;-78
2022/08/20 02:41:55;;;;;;;9.55;7.90;;;19.90;97.90;;;;;;5003997;28;20036;-78
2022/08/20 02:44:21;;;;;;;13.57;10.23;;;19.90;98.50;;;;;;5004978;28;20028;-79
2022/08/20 02:46:48;;;;;;;16.95;13.60;;;19.90;99.20;;;;;;4998614;28;20548;-78
2022/08/20 02:49:16;;;;;;;21.73;14.02;;;19.90;98.90;;;;;;4989375;28;20041;-79
2022/08/20 02:51:41;;;;;;;22.58;15.30;;;19.80;99.90;;;;;;5003596;28;20060;-79
2022/08/20 02:54:07;;;;;;;18.95;12.98;;;19.70;98.70;;;;;;4990557;28;20057;-78
2022/08/20 02:56:32;;;;;;;16.80;12.07;;;19.60;99.10;;;;;;4987172;28;20029;-78
2022/08/20 02:58:58;;;;;;;17.73;12.45;;;19.70;98.30;;;;;;4990516;28;20042;-79
2022/08/20 03:01:24;;;;;;;9.10;7.00;;;19.60;97.30;;;;;;4988679;28;20024;-80
2022/08/20 03:03:49;;;;;;;10.85;8.60;;;19.60;98.20;;;;;;4999262;28;20026;-79
2022/08/20 03:06:15;;;;;;;7.32;4.57;;;19.60;97.40;;;;;;4989525;28;20033;-78
2022/08/20 03:08:41;;;;;;;6.93;5.05;;;19.60;97.10;;;;;;4983575;28;20030;-79
2022/08/20 03:11:06;;;;;;;7.55;6.28;;;19.60;97.30;;;;;;5003877;28;20037;-78
2022/08/20 03:13:32;;;;;;;5.95;5.35;;;19.70;98.10;;;;;;4988723;28;20029;-79
2022/08/20 03:15:59;;;;;;;10.82;6.80;;;19.60;97.60;;;;;;5004566;28;20766;-78
2022/08/20 03:18:27;;;;;;;16.25;12.90;;;19.60;97.70;;;;;;5002536;28;20025;-80
2022/08/20 03:20:52;;;;;;;6.65;5.60;;;19.60;98.10;;;;;;4986541;28;20509;-79
2022/08/20 03:23:18;;;;;;;13.85;10.77;;;19.50;97.60;;;;;;5020797;28;20022;-78
2022/08/20 03:25:45;;;;;;;17.58;13.98;;;19.50;98.20;;;;;;5000866;28;20044;-79
2022/08/20 03:28:10;;;;;;;5.97;5.07;;;19.40;99.90;;;;;;4990934;28;20037;-79
2022/08/20 03:30:36;;;;;;;8.10;6.95;;;19.40;97.70;;;;;;4987760;28;20029;-79
2022/08/20 03:33:02;;;;;;;12.93;9.20;;;19.40;98.00;;;;;;4987923;28;20029;-79
2022/08/20 03:35:28;;;;;;;13.07;9.93;;;19.50;99.30;;;;;;5000031;28;20092;-80
2022/08/20 03:37:54;;;;;;;14.52;10.05;;;19.50;98.40;;;;;;4988835;28;20030;-77
2022/08/20 03:40:29;;;;;;;13.10;9.75;;;19.50;99.20;;;;;;4987757;28;20033;-76
2022/08/20 03:42:55;;;;;;;13.70;10.38;;;19.60;99.00;;;;;;4998867;28;20045;-78
2022/08/20 03:45:21;;;;;;;17.83;12.50;;;19.50;98.30;;;;;;5005668;28;20044;-76
2022/08/20 03:47:47;;;;;;;7.20;5.65;;;19.40;98.10;;;;;;5000352;28;20030;-80
2022/08/20 03:50:13;;;;;;;10.18;8.30;;;19.30;97.80;;;;;;4988704;28;20048;-77
2022/08/20 03:52:38;;;;;;;11.25;8.88;;;19.40;99.20;;;;;;4988125;28;20064;-78
2022/08/20 03:55:05;;;;;;;11.18;7.53;;;19.40;98.50;;;;;;4986789;28;20040;-79
2022/08/20 03:57:31;;;;;;;15.30;11.82;;;19.40;98.50;;;;;;4989411;28;20045;-78
2022/08/20 03:59:57;;;;;;;21.40;13.98;;;19.30;98.00;;;;;;5020029;28;20068;-78
2022/08/20 04:02:23;;;;;;;18.15;12.98;;;19.30;98.00;;;;;;5004528;28;20057;-78
2022/08/20 04:04:49;;;;;;;7.72;5.97;;;19.20;98.20;;;;;;4987884;28;20533;-80
2022/08/20 04:07:24;;;;;;;12.70;10.20;;;19.30;97.60;;;;;;4992298;28;20117;-79
2022/08/20 04:09:53;;;;;;;11.17;7.97;;;19.30;97.80;;;;;;5007532;28;20029;-80
2022/08/20 04:12:19;;;;;;;13.27;9.32;;;19.30;97.60;;;;;;5004385;28;20092;-79
2022/08/20 04:14:45;;;;;;;11.27;8.90;;;19.30;99.00;;;;;;4989195;28;20045;-78
2022/08/20 04:17:11;;;;;;;10.80;9.10;;;19.30;98.40;;;;;;4991826;28;20049;-79
2022/08/20 04:19:37;;;;;;;20.92;14.00;;;19.30;98.50;;;;;;4988437;28;20084;-79
2022/08/20 04:22:03;;;;;;;6.10;4.47;;;19.30;97.90;;;;;;4994297;28;20584;-80
2022/08/20 04:24:29;;;;;;;11.57;7.95;;;19.20;97.70;;;;;;4986928;28;22609;-79
2022/08/20 04:26:54;;;;;;;8.88;6.40;;;19.30;99.90;;;;;;5022466;28;20037;-77
2022/08/20 04:29:24;;;;;;;19.90;14.43;;;19.40;99.40;;;;;;4993700;28;20067;-77
2022/08/20 04:31:51;;;;;;;10.70;7.97;;;19.40;99.90;;;;;;5019071;28;20457;-78
2022/08/20 04:34:17;;;;;;;8.02;6.88;;;19.40;99.80;;;;;;4993569;28;20036;-77
2022/08/20 04:36:45;;;;;;;10.30;8.55;;;19.30;99.90;;;;;;4988119;28;20515;-77
2022/08/20 04:39:11;;;;;;;10.98;8.20;;;19.40;99.90;;;;;;5003725;28;20382;-78
2022/08/20 04:41:37;;;;;;;9.13;5.82;;;19.40;99.70;;;;;;5005326;28;20040;-78
2022/08/20 04:44:02;;;;;;;8.75;6.05;;;19.40;99.90;;;;;;5004510;28;20021;-78
2022/08/20 04:46:30;;;;;;;12.93;8.60;;;19.60;99.60;;;;;;4989907;28;20057;-78
2022/08/20 04:48:56;;;;;;;16.92;12.70;;;19.50;99.90;;;;;;4991275;28;20540;-78
2022/08/20 04:51:22;;;;;;;14.52;10.43;;;19.50;99.90;;;;;;4985620;28;20064;-78
2022/08/20 04:53:47;;;;;;;11.00;8.60;;;19.50;99.90;;;;;;5004254;28;20028;-78
2022/08/20 04:56:13;;;;;;;15.65;11.98;;;19.50;99.90;;;;;;5002739;28;20033;-79
2022/08/20 04:58:39;;;;;;;8.35;6.05;;;19.60;99.90;;;;;;4979288;28;20033;-78
2022/08/20 05:01:09;;;;;;;13.60;9.93;;;19.50;99.90;;;;;;4992086;28;20515;-80
2022/08/20 05:03:37;;;;;;;21.40;13.40;;;19.50;99.90;;;;;;4991790;28;20316;-78
2022/08/20 05:06:04;;;;;;;23.92;17.40;;;19.60;99.90;;;;;;4990759;28;20612;-77
2022/08/20 05:08:30;;;;;;;10.60;8.30;;;19.60;99.90;;;;;;5007031;28;20512;-79
2022/08/20 05:10:56;;;;;;;15.45;11.98;;;19.60;99.90;;;;;;4980976;28;20393;-78
2022/08/20 05:13:22;;;;;;;26.85;19.45;;;19.60;99.90;;;;;;4982898;28;20041;-78
2022/08/20 05:15:48;;;;;;;9.85;7.55;;;19.70;99.90;;;;;;4987310;28;20037;-77
2022/08/20 05:18:17;;;;;;;30.02;18.13;;;19.50;99.90;;;;;;4995357;28;20106;-78
2022/08/20 05:20:42;;;;;;;27.05;18.83;;;19.60;99.90;;;;;;4997949;28;20127;-77
2022/08/20 05:23:09;;;;;;;11.82;9.45;;;19.60;99.90;;;;;;4991539;28;20022;-79
2022/08/20 05:25:38;;;;;;;19.67;15.05;;;19.60;99.90;;;;;;5007686;28;20088;-79
2022/08/20 05:28:11;;;;;;;15.35;12.00;;;19.70;99.90;;;;;;4987711;28;20493;-79
2022/08/20 05:30:37;;;;;;;21.90;15.15;;;19.70;99.90;;;;;;4993704;28;20497;-78
2022/08/20 05:33:04;;;;;;;12.52;9.45;;;19.70;99.90;;;;;;4984725;28;20555;-79
2022/08/20 05:35:31;;;;;;;9.82;7.55;;;19.70;99.90;;;;;;4991301;28;20501;-80
2022/08/20 05:38:00;;;;;;;13.75;11.00;;;19.80;99.50;;;;;;4992962;28;20041;-80
2022/08/20 05:40:26;;;;;;;23.88;17.08;;;19.70;99.90;;;;;;5002127;28;20119;-79
2022/08/20 05:42:52;;;;;;;11.90;9.30;;;19.60;99.90;;;;;;5002207;28;20034;-79
2022/08/20 05:45:18;;;;;;;20.33;15.82;;;19.60;99.90;;;;;;4991128;28;20482;-81
2022/08/20 05:47:44;;;;;;;28.35;18.98;;;19.60;99.90;;;;;;5003800;28;20410;-80
2022/08/20 05:50:11;;;;;;;32.33;20.65;;;19.50;99.90;;;;;;4994039;28;20040;-80
2022/08/20 05:52:37;;;;;;;24.05;17.17;;;19.50;99.90;;;;;;5002269;28;20141;-79
2022/08/20 05:55:05;;;;;;;13.15;9.27;;;19.50;99.90;;;;;;5001426;28;20521;-80
2022/08/20 05:57:30;;;;;;;21.08;16.08;;;19.60;99.90;;;;;;4989640;28;20030;-79
2022/08/20 05:59:58;;;;;;;26.90;17.33;;;19.60;99.90;;;;;;5002821;28;20053;-79
2022/08/20 06:05:08;;;;;;;11.32;9.60;;;19.60;99.90;;;;;;5004573;28;20032;-80
2022/08/20 06:07:33;;;;;;;10.13;7.57;;;19.60;99.90;;;;;;5003692;28;20037;-80
2022/08/20 06:10:00;;;;;;;7.47;6.55;;;19.60;99.90;;;;;;4997776;28;20026;-84
2022/08/20 06:12:25;;;;;;;8.25;6.80;;;19.60;99.90;;;;;;5021368;28;20059;-82
2022/08/20 06:14:51;;;;;;;6.45;5.13;;;19.70;99.90;;;;;;5012505;28;20073;-83
2022/08/20 06:17:17;;;;;;;19.13;12.88;;;19.80;99.90;;;;;;4993039;28;20030;-85
2022/08/20 06:19:44;;;;;;;9.05;7.55;;;19.80;99.90;;;;;;4989968;28;20026;-82
2022/08/20 06:22:13;;;;;;;12.13;9.10;;;19.80;99.90;;;;;;4987579;28;20060;-82
2022/08/20 06:24:39;;;;;;;5.93;5.00;;;19.90;99.90;;;;;;5002718;28;20033;-81
2022/08/20 06:27:04;;;;;;;6.15;5.55;;;19.90;99.90;;;;;;4988053;28;20064;-82
2022/08/20 06:29:32;;;;;;;5.45;4.90;;;19.90;99.90;;;;;;4990407;28;20037;-82
2022/08/20 06:31:57;;;;;;;5.57;4.35;;;20.00;99.90;;;;;;4988184;28;20053;-83
2022/08/20 06:34:26;;;;;;;4.47;4.07;;;20.10;99.90;;;;;;4987070;28;20479;-82
2022/08/20 06:36:53;;;;;;;7.35;5.40;;;20.10;99.90;;;;;;4988787;28;20037;-82
2022/08/20 06:39:18;;;;;;;3.95;3.55;;;20.10;99.90;;;;;;4989841;28;20030;-82
2022/08/20 06:41:44;;;;;;;5.05;4.57;;;20.10;99.90;;;;;;4988283;28;20031;-82
2022/08/20 06:44:09;;;;;;;5.18;4.40;;;20.20;99.90;;;;;;4991966;28;20044;-82
2022/08/20 06:46:35;;;;;;;5.05;4.35;;;20.30;99.90;;;;;;4988525;28;20046;-82
2022/08/20 06:49:05;;;;;;;7.35;6.10;;;20.30;99.90;;;;;;4975602;28;20031;-82
2022/08/20 06:51:32;;;;;;;5.55;4.97;;;20.30;99.90;;;;;;5004983;28;20029;-83
2022/08/20 06:53:57;;;;;;;12.25;7.82;;;20.30;99.90;;;;;;4991627;28;20033;-83
2022/08/20 06:56:23;;;;;;;8.70;7.80;;;20.30;99.90;;;;;;4990914;28;20034;-83
2022/08/20 06:58:48;;;;;;;4.05;3.65;;;20.30;99.60;;;;;;5001735;28;20036;-84
2022/08/20 07:01:16;;;;;;;6.47;4.75;;;20.40;99.90;;;;;;5020049;28;20040;-83
2022/08/20 07:03:42;;;;;;;4.88;3.90;;;20.40;99.50;;;;;;4985948;28;20033;-83
2022/08/20 07:06:08;;;;;;;10.43;7.80;;;20.50;99.20;;;;;;4990958;28;20039;-82
2022/08/20 07:08:34;;;;;;;4.68;4.00;;;20.50;99.30;;;;;;4981718;28;20477;-83
2022/08/20 07:10:59;;;;;;;14.30;11.13;;;20.60;99.70;;;;;;4997470;28;20030;-83
2022/08/20 07:13:25;;;;;;;8.65;7.75;;;20.80;99.90;;;;;;4982526;28;20038;-83
2022/08/20 07:15:51;;;;;;;5.40;4.90;;;20.90;99.80;;;;;;5001226;28;20473;-84
2022/08/20 07:18:17;;;;;;;7.03;5.95;;;21.00;99.90;;;;;;5003967;28;20040;-84
2022/08/20 07:20:43;;;;;;;10.77;9.57;;;21.10;99.90;;;;;;4999288;28;20505;-84
2022/08/20 07:23:10;;;;;;;6.13;5.53;;;21.10;99.60;;;;;;4985718;28;20064;-84
2022/08/20 07:25:36;;;;;;;6.53;5.35;;;21.20;99.90;;;;;;4986681;28;20474;-83
2022/08/20 07:28:12;;;;;;;7.00;6.18;;;21.20;99.90;;;;;;4991215;28;20029;-84
2022/08/20 07:33:22;;;;;;;19.00;12.10;;;21.30;99.90;;;;;;5002532;28;20096;-84
2022/08/20 07:35:47;;;;;;;6.25;4.82;;;21.40;99.90;;;;;;5020639;28;20042;-84
2022/08/20 07:38:25;;;;;;;7.22;6.53;;;21.50;99.90;;;;;;4994234;28;20060;-84
2022/08/20 07:41:01;;;;;;;16.63;13.68;;;21.60;99.90;;;;;;4992407;28;20267;-84
2022/08/20 07:43:27;;;;;;;10.13;8.50;;;21.80;99.90;;;;;;5009046;28;20030;-84
2022/08/20 07:45:55;;;;;;;12.10;10.65;;;22.00;99.90;;;;;;5009438;28;20044;-85
2022/08/20 07:48:21;;;;;;;11.77;8.30;;;22.10;99.90;;;;;;5010555;28;20093;-84
2022/08/20 07:50:48;;;;;;;23.30;17.83;;;22.20;99.90;;;;;;4990704;28;20054;-84
2022/08/20 07:53:14;;;;;;;9.23;8.35;;;22.30;99.90;;;;;;5007445;28;20050;-84
2022/08/20 07:55:40;;;;;;;10.50;9.35;;;22.30;99.90;;;;;;5005962;28;20060;-84
2022/08/20 07:58:08;;;;;;;12.50;10.27;;;22.40;99.90;;;;;;4991957;28;20029;-84
2022/08/20 08:00:34;;;;;;;18.55;14.35;;;22.50;99.90;;;;;;4994028;28;20056;-85
2022/08/20 08:03:00;;;;;;;15.50;12.20;;;22.50;99.90;;;;;;4985247;28;20061;-84
2022/08/20 08:05:25;;;;;;;13.32;11.32;;;22.60;99.90;;;;;;5000692;28;20029;-85
2022/08/20 08:07:54;;;;;;;13.85;11.20;;;22.80;99.90;;;;;;4984482;28;20455;-86
2022/08/20 08:10:21;;;;;;;13.73;11.63;;;22.80;99.90;;;;;;4997924;28;20054;-86
2022/08/20 08:13:01;;;;;;;14.25;11.82;;;23.10;99.90;;;;;;4995612;28;20121;-85
2022/08/20 08:15:30;;;;;;;15.20;13.25;;;23.20;99.80;;;;;;4994991;28;20041;-84
2022/08/20 08:17:59;;;;;;;14.20;12.70;;;23.30;99.40;;;;;;4995694;28;20030;-83
2022/08/20 08:20:28;;;;;;;20.75;16.05;;;23.40;99.70;;;;;;5006722;28;20091;-84
2022/08/20 08:22:54;;;;;;;18.50;14.95;;;23.60;99.90;;;;;;4990727;28;20033;-84
2022/08/20 08:25:20;;;;;;;16.80;14.98;;;23.70;99.90;;;;;;4991466;28;20029;-85
2022/08/20 08:27:48;;;;;;;21.80;18.60;;;23.80;99.90;;;;;;4996968;28;20124;-85
2022/08/20 08:30:15;;;;;;;25.20;21.55;;;24.00;99.90;;;;;;4996161;28;20455;-84
2022/08/20 08:35:28;;;;;;;25.95;19.75;;;24.50;99.90;;;;;;4978867;28;20543;-85
2022/08/20 08:38:01;;;;;;;24.40;19.00;;;24.70;99.90;;;;;;5010773;28;20118;-85
2022/08/20 08:40:31;;;;;;;23.08;19.85;;;24.70;99.40;;;;;;4991624;28;20484;-84
2022/08/20 08:42:57;;;;;;;25.95;20.73;;;24.40;99.60;;;;;;4992903;28;20065;-84
2022/08/20 08:45:28;;;;;;;29.85;24.10;;;24.20;99.50;;;;;;4994850;28;20037;-84
2022/08/20 08:47:53;;;;;;;26.80;22.30;;;24.70;99.90;;;;;;4993447;28;20122;-84
2022/08/20 08:50:22;;;;;;;29.98;23.63;;;24.90;99.90;;;;;;4994110;28;20168;-84
2022/08/20 08:52:49;;;;;;;27.52;22.13;;;25.10;99.00;;;;;;4993127;28;20041;-84
2022/08/20 08:55:15;;;;;;;34.05;27.52;;;25.10;99.70;;;;;;5008351;28;20459;-83
2022/08/20 08:57:40;;;;;;;26.70;21.83;;;25.40;99.90;;;;;;5006018;28;20148;-82
2022/08/20 09:00:14;;;;;;;33.08;26.15;;;25.50;99.80;;;;;;4994429;28;20040;-83
2022/08/20 09:02:41;;;;;;;27.52;23.60;;;25.50;99.90;;;;;;4992496;28;20026;-82
2022/08/20 09:05:14;;;;;;;31.55;25.52;;;25.70;99.10;;;;;;4993330;28;20044;-83
2022/08/20 09:07:44;;;;;;;26.80;21.13;;;25.70;99.40;;;;;;5006713;28;20034;-83
2022/08/20 09:10:10;;;;;;;25.55;21.30;;;25.70;98.80;;;;;;4989464;28;20064;-83
2022/08/20 09:12:36;;;;;;;30.63;22.98;;;26.00;99.50;;;;;;4987021;28;20131;-82
2022/08/20 09:15:10;;;;;;;28.83;22.45;;;26.10;98.20;;;;;;4993175;28;20045;-84
2022/08/20 09:17:36;;;;;;;28.50;19.15;;;26.10;99.50;;;;;;5007075;28;20029;-84
2022/08/20 09:20:02;;;;;;;31.95;24.33;;;26.20;98.00;;;;;;4980174;28;20044;-83
2022/08/20 09:22:27;;;;;;;38.47;25.50;;;26.30;96.50;;;;;;4994213;28;20366;-80
2022/08/20 09:24:53;;;;;;;41.30;29.63;;;26.40;97.50;;;;;;5007878;28;20029;-82
2022/08/20 09:27:19;;;;;;;42.40;30.38;;;26.40;98.00;;;;;;4987575;28;20036;-80
2022/08/20 09:29:45;;;;;;;44.63;33.88;;;26.50;96.80;;;;;;5000586;28;20099;-80
2022/08/20 09:32:29;;;;;;;36.05;29.98;;;26.50;97.90;;;;;;5003136;28;20068;-81
2022/08/20 09:34:55;;;;;;;28.27;24.25;;;26.60;97.70;;;;;;4989490;28;20079;-80
2022/08/20 09:37:22;;;;;;;25.95;21.13;;;26.50;97.40;;;;;;4999785;28;20033;-81
2022/08/20 09:39:48;;;;;;;24.77;19.58;;;26.50;96.90;;;;;;5004159;28;20079;-80
2022/08/20 09:42:25;;;;;;;16.45;11.80;;;26.70;96.30;;;;;;5014494;28;20490;-80
2022/08/20 09:44:51;;;;;;;24.10;19.73;;;26.80;96.60;;;;;;4981800;28;20152;-81
2022/08/20 09:47:16;;;;;;;32.17;22.08;;;26.80;95.30;;;;;;5008233;28;20374;-81
2022/08/20 09:49:43;;;;;;;36.25;25.02;;;27.10;96.40;;;;;;5007072;28;20121;-81
2022/08/20 09:52:10;;;;;;;22.13;18.55;;;27.40;95.60;;;;;;4990924;28;20096;-81
2022/08/20 09:54:35;;;;;;;26.63;17.77;;;27.60;96.40;;;;;;4992944;28;20436;-80
2022/08/20 09:57:03;;;;;;;27.42;22.92;;;27.80;94.90;;;;;;4985949;28;20140;-81
2022/08/20 09:59:29;;;;;;;27.50;21.85;;;27.90;94.20;;;;;;5008028;28;20033;-80
2022/08/20 10:01:54;;;;;;;29.65;24.58;;;28.30;94.50;;;;;;5002562;28;20389;-81
2022/08/20 10:04:20;;;;;;;23.67;17.80;;;28.40;94.30;;;;;;5019267;28;20037;-81
2022/08/20 10:06:48;;;;;;;20.50;18.25;;;28.50;93.00;;;;;;5004087;28;20065;-81
2022/08/20 10:09:14;;;;;;;19.17;16.23;;;28.60;92.80;;;;;;4994044;28;20026;-81
2022/08/20 10:11:44;;;;;;;22.17;16.75;;;28.60;91.50;;;;;;4991030;28;20079;-84
2022/08/20 10:14:09;;;;;;;22.55;17.27;;;28.90;93.40;;;;;;4995195;28;20393;-84
2022/08/20 10:16:35;;;;;;;19.45;15.00;;;28.90;92.70;;;;;;5005110;28;20033;-85
2022/08/20 10:19:01;;;;;;;20.05;13.98;;;29.00;91.50;;;;;;4991804;28;20782;-83
2022/08/20 10:21:28;;;;;;;23.50;15.90;;;29.10;90.70;;;;;;4963637;28;20030;-84
2022/08/20 10:23:53;;;;;;;15.82;12.75;;;29.00;90.50;;;;;;4970734;28;20021;-84
2022/08/20 10:26:19;;;;;;;18.80;13.10;;;29.20;91.30;;;;;;4982101;28;20036;-84
2022/08/20 10:28:44;;;;;;;16.50;11.55;;;29.30;89.30;;;;;;5004563;28;20033;-84
2022/08/20 10:34:34;;;;;;;18.23;13.85;;;28.90;86.80;;;;;;4985686;28;20032;-83
2022/08/20 10:37:02;;;;;;;15.40;10.82;;;28.70;85.80;;;;;;5010588;28;20095;-83
2022/08/20 10:39:27;;;;;;;16.02;12.55;;;29.40;89.00;;;;;;4991491;28;20140;-84
2022/08/20 10:41:53;;;;;;;15.15;10.90;;;29.80;88.00;;;;;;4991568;28;20097;-85
2022/08/20 10:44:19;;;;;;;15.75;10.38;;;29.90;85.00;;;;;;4989223;28;20038;-85
2022/08/20 10:46:46;;;;;;;17.10;12.45;;;30.10;85.20;;;;;;4983894;28;20109;-84
2022/08/20 10:49:12;;;;;;;18.83;14.32;;;30.20;86.50;;;;;;5004925;28;20124;-86
2022/08/20 10:51:38;;;;;;;15.52;12.43;;;29.80;84.80;;;;;;4967226;28;20110;-82
2022/08/20 10:54:03;;;;;;;12.52;10.52;;;30.10;81.60;;;;;;4998090;28;20405;-81
2022/08/20 10:56:32;;;;;;;17.33;13.65;;;30.30;83.50;;;;;;5014550;28;20232;-81
2022/08/20 10:58:57;;;;;;;14.35;10.70;;;30.20;83.40;;;;;;4950981;28;20058;-88
2022/08/20 11:01:24;;;;;;;16.70;11.55;;;30.30;82.30;;;;;;4971952;28;20041;-88
2022/08/20 11:03:53;;;;;;;16.30;10.75;;;29.90;79.90;;;;;;4989707;28;20121;-85
2022/08/20 11:06:19;;;;;;;14.65;9.45;;;29.80;79.20;;;;;;4990567;28;20045;-85
2022/08/20 11:08:45;;;;;;;12.30;9.35;;;29.80;80.10;;;;;;4989519;28;20033;-85
2022/08/20 11:11:10;;;;;;;14.43;9.65;;;29.90;79.30;;;;;;4979601;28;20032;-85
2022/08/20 11:14:16;;;;;;;13.35;10.80;;;30.00;77.90;;;;;;4988737;28;20192;-89
2022/08/20 11:16:41;;;;;;;16.95;10.20;;;29.90;76.80;;;;;;5005388;28;20390;-86
2022/08/20 11:19:07;;;;;;;17.40;12.27;;;30.20;79.00;;;;;;4984207;28;20109;-87
2022/08/20 11:21:33;;;;;;;13.68;8.05;;;30.60;76.70;;;;;;5001209;28;20037;-89
2022/08/20 11:27:24;;;;;;;15.90;11.93;;;30.80;75.00;;;;;;4981845;28;20969;-86
2022/08/20 11:29:50;;;;;;;13.93;12.43;;;30.60;72.70;;;;;;4988386;28;20010;-92
2022/08/20 11:32:16;;;;;;;15.75;10.38;;;30.80;72.50;;;;;;4987021;28;20033;-92
2022/08/20 11:35:12;;;;;;;14.32;10.88;;;30.70;73.60;;;;;;5005254;28;20045;-92
2022/08/20 11:38:20;;;;;;;13.10;10.75;;;30.90;71.90;;;;;;5044206;28;20034;-91
2022/08/20 11:48:32;;;;;;;13.25;8.93;;;30.90;72.50;;;;;;4996662;28;20046;-89
2022/08/20 11:50:58;;;;;;;14.25;9.77;;;31.10;70.70;;;;;;4964670;28;20037;-78
2022/08/20 11:53:23;;;;;;;11.82;8.32;;;31.10;70.20;;;;;;4971079;28;20030;-78
2022/08/20 11:55:49;;;;;;;10.60;8.68;;;31.20;71.10;;;;;;4963740;28;20045;-84
2022/08/20 11:58:15;;;;;;;14.80;11.30;;;31.50;70.10;;;;;;4967524;28;20481;-82
2022/08/20 12:00:40;;;;;;;11.57;9.02;;;31.30;69.30;;;;;;4999145;28;20026;-87
2022/08/20 12:03:07;;;;;;;12.55;9.48;;;31.60;68.40;;;;;;4987868;28;20041;-87
2022/08/20 12:05:36;;;;;;;16.65;9.38;;;31.80;69.30;;;;;;4971688;28;20113;-86
2022/08/20 12:08:02;;;;;;;12.25;9.15;;;32.10;66.60;;;;;;4923373;28;20419;-85
2022/08/20 12:10:28;;;;;;;12.80;9.55;;;32.10;66.60;;;;;;4953662;28;20038;-85
2022/08/20 12:13:00;;;;;;;11.15;7.93;;;32.30;65.50;;;;;;4958880;28;20032;-85
2022/08/20 12:15:26;;;;;;;9.55;8.52;;;32.10;66.80;;;;;;4956222;28;20030;-85
2022/08/20 12:18:38;;;;;;;15.05;8.52;;;31.90;67.60;;;;;;4973593;28;20030;-84
2022/08/20 12:21:53;;;;;;;12.57;10.07;;;31.80;66.90;;;;;;4971524;28;20509;-84
2022/08/20 12:24:19;;;;;;;14.05;8.70;;;31.80;66.90;;;;;;4967800;28;20053;-84
2022/08/20 12:26:44;;;;;;;12.18;8.45;;;32.00;64.60;;;;;;4986758;28;20022;-84
2022/08/20 12:29:10;;;;;;;10.80;8.65;;;32.00;64.50;;;;;;4969763;28;20493;-84
2022/08/20 12:31:36;;;;;;;17.40;11.02;;;31.80;65.40;;;;;;4961933;28;20461;-84
2022/08/20 12:37:29;;;;;;;10.40;7.63;;;32.00;65.70;;;;;;4979565;28;20034;-83
2022/08/20 12:39:55;;;;;;;9.43;7.18;;;32.10;63.00;;;;;;4941737;28;20482;-83
2022/08/20 12:42:39;;;;;;;13.38;7.72;;;32.40;62.90;;;;;;4973123;28;20030;-84
2022/08/20 12:45:25;;;;;;;11.15;8.45;;;32.20;64.00;;;;;;4962914;28;20034;-83
2022/08/20 12:48:10;;;;;;;11.15;7.55;;;32.60;61.70;;;;;;5008718;28;20060;-83
2022/08/20 12:50:36;;;;;;;;;;;32.70;61.10;;;;;;4940213;28;20026;-81
2022/08/20 12:53:11;;;;;;;8.18;6.43;;;32.90;63.00;;;;;;4979571;28;20277;-82
2022/08/20 12:55:49;;;;;;;10.05;7.68;;;33.00;61.30;;;;;;4987854;28;20038;-82
2022/08/20 12:58:14;;;;;;;10.77;6.55;;;33.00;60.90;;;;;;4960846;28;20049;-84
2022/08/20 13:00:43;;;;;;;7.30;6.43;;;33.10;61.70;;;;;;4975138;28;20030;-81
2022/08/20 13:03:09;;;;;;;11.77;8.10;;;33.10;59.50;;;;;;4960443;28;20029;-79
2022/08/20 13:05:34;;;;;;;12.40;6.45;;;33.40;59.50;;;;;;4974722;28;20398;-79